Time;durP1;ratioP1;P1;durP2;ratioP2;P2;SDS_P1;SDS_P2;PMS_P1;PMS_P2;Temp;Humidity;BMP_temperature;BMP_pressure;BME280_temperature;BME280_humidity;BME280_pressure;Samples;Min_cycle;Max_cycle;Signal;HPM_P1;HPM_P2
2024/04/08 00:00:40;;;;;;;7.57;2.70;;;19.20;48.80;;;20.79;39.68;97130.44;5013327;28;20065;-39
2024/04/08 00:03:07;;;;;;;5.88;3.05;;;19.10;48.20;;;20.74;39.63;97125.72;5029583;28;20038;-39
2024/04/08 00:05:34;;;;;;;9.95;2.75;;;19.00;48.30;;;20.70;39.58;97121.06;5029666;28;20037;-39
2024/04/08 00:08:01;;;;;;;7.38;3.13;;;19.00;48.30;;;20.67;39.71;97122.38;5029753;28;20496;-40
2024/04/08 00:10:28;;;;;;;12.18;3.05;;;19.00;49.10;;;20.62;39.91;97128.47;5030074;28;20045;-39
2024/04/08 00:12:55;;;;;;;6.57;2.85;;;18.90;48.40;;;20.63;39.52;97142.84;5029551;28;20050;-39
2024/04/08 00:15:21;;;;;;;9.95;2.85;;;18.90;48.10;;;20.62;39.54;97150.09;5029959;28;20052;-39
2024/04/08 00:17:48;;;;;;;9.00;3.45;;;18.90;47.80;;;20.62;39.22;97133.06;5029599;28;20050;-40
2024/04/08 00:20:15;;;;;;;7.30;2.90;;;18.90;47.30;;;20.64;38.94;97128.22;5029856;28;20041;-40
2024/04/08 00:22:42;;;;;;;8.70;2.40;;;19.00;47.20;;;20.63;39.35;97132.84;5025772;28;20413;-39
2024/04/08 00:25:09;;;;;;;7.55;3.30;;;19.00;47.40;;;20.63;39.15;97126.59;5029437;28;20056;-39
2024/04/08 00:27:37;;;;;;;9.70;3.75;;;18.90;47.20;;;20.64;39.11;97126.34;5029853;28;20055;-40
2024/04/08 00:30:04;;;;;;;10.55;3.42;;;19.00;47.20;;;20.67;38.99;97137.78;5013103;28;20516;-39
2024/04/08 00:32:31;;;;;;;8.23;2.78;;;19.00;47.10;;;20.68;38.94;97132.09;5029328;28;20424;-40
2024/04/08 00:34:58;;;;;;;9.18;3.03;;;19.00;46.50;;;20.70;38.93;97115.66;5029440;28;20056;-40
2024/04/08 00:37:24;;;;;;;7.00;3.42;;;19.10;46.50;;;20.71;38.42;97110.00;5013114;28;20037;-39
2024/04/08 00:39:51;;;;;;;6.97;3.08;;;19.10;45.80;;;20.71;38.29;97112.72;5029477;28;20512;-39
2024/04/08 00:42:18;;;;;;;8.50;2.90;;;19.20;45.80;;;20.75;38.22;97099.53;5029359;28;20042;-39
2024/04/08 00:44:46;;;;;;;7.38;3.13;;;19.20;45.80;;;20.76;38.18;97102.00;5012859;28;20045;-40
2024/04/08 00:47:14;;;;;;;8.73;3.00;;;19.20;45.10;;;20.80;37.72;97102.31;5029476;28;20523;-40
2024/04/08 00:49:42;;;;;;;7.25;2.83;;;19.30;44.50;;;20.83;37.83;97108.06;5029229;28;20048;-39
2024/04/08 00:52:13;;;;;;;6.75;3.15;;;19.30;44.60;;;20.86;38.17;97109.50;5029434;28;20041;-39
2024/04/08 00:54:40;;;;;;;6.85;2.30;;;19.40;45.10;;;20.89;37.70;97111.72;5012486;28;20223;-40
2024/04/08 00:57:13;;;;;;;9.82;3.10;;;19.30;44.80;;;20.90;37.74;97107.09;5029235;28;20406;-40
2024/04/08 00:59:40;;;;;;;5.05;2.63;;;19.40;44.20;;;20.89;37.67;97102.78;5034172;28;20060;-40
2024/04/08 01:02:07;;;;;;;7.57;3.22;;;19.40;44.30;;;20.89;37.18;97105.47;5035836;28;20048;-40
2024/04/08 01:04:34;;;;;;;8.65;2.70;;;19.40;43.60;;;20.90;37.84;97102.53;5035313;28;20045;-40
2024/04/08 01:07:02;;;;;;;6.40;2.38;;;19.40;44.30;;;20.91;37.91;97090.66;5035802;28;20049;-40
2024/04/08 01:09:29;;;;;;;7.05;2.40;;;19.50;44.50;;;20.93;37.13;97101.22;5035836;28;20041;-40
2024/04/08 01:11:59;;;;;;;8.50;2.88;;;19.40;43.70;;;20.94;37.34;97092.06;5019341;28;20421;-40
2024/04/08 01:14:25;;;;;;;7.75;2.42;;;19.50;44.20;;;20.93;37.11;97099.34;5019099;28;20500;-40
2024/04/08 01:16:52;;;;;;;9.60;2.95;;;19.40;43.90;;;20.95;36.94;97096.41;5035530;28;20041;-40
2024/04/08 01:19:23;;;;;;;7.28;2.60;;;19.40;43.30;;;20.96;36.93;97089.94;5035692;28;20069;-40
2024/04/08 01:21:50;;;;;;;5.75;2.78;;;19.50;43.10;;;20.97;36.79;97095.09;5019882;28;20512;-40
2024/04/08 01:24:17;;;;;;;8.20;2.65;;;19.50;43.40;;;20.98;37.15;97099.44;5027338;28;20037;-40
2024/04/08 01:26:44;;;;;;;7.15;2.45;;;19.50;43.60;;;20.99;37.23;97095.66;5018618;28;20045;-40
2024/04/08 01:29:11;;;;;;;10.23;3.03;;;19.50;44.20;;;21.00;37.18;97096.50;5035558;28;20049;-39
2024/04/08 01:31:37;;;;;;;7.95;3.05;;;19.40;43.70;;;20.99;37.28;97100.25;5035657;28;20045;-40
2024/04/08 01:34:04;;;;;;;5.10;2.33;;;19.40;43.70;;;20.97;37.53;97095.09;5035125;28;20049;-40
2024/04/08 01:36:31;;;;;;;7.28;3.15;;;19.40;44.30;;;20.96;36.75;97095.34;5035635;28;20053;-40
2024/04/08 01:38:58;;;;;;;4.10;2.13;;;19.40;43.10;;;20.92;36.67;97086.88;5019255;28;20053;-40
2024/04/08 01:41:24;;;;;;;4.55;2.30;;;19.50;43.00;;;20.88;36.34;97087.59;5035854;28;20045;-40
2024/04/08 01:43:51;;;;;;;15.25;3.28;;;19.50;42.60;;;20.88;36.31;97096.56;5034701;28;20409;-39
2024/04/08 01:46:18;;;;;;;9.65;2.38;;;19.50;42.40;;;20.91;36.53;97090.66;5035483;28;20500;-39
2024/04/08 01:48:44;;;;;;;5.63;2.28;;;19.50;42.60;;;20.94;36.86;97083.94;5035469;28;20050;-40
2024/04/08 01:51:11;;;;;;;7.88;3.40;;;19.40;42.90;;;20.94;35.98;97078.53;5035480;28;20041;-39
2024/04/08 01:53:38;;;;;;;6.68;3.45;;;19.40;42.50;;;20.94;36.44;97095.59;5034753;28;20493;-39
2024/04/08 01:56:05;;;;;;;10.77;2.85;;;19.50;42.60;;;20.96;36.82;97095.34;5035368;28;20053;-39
2024/04/08 01:58:31;;;;;;;6.85;2.72;;;19.50;43.50;;;20.97;37.11;97094.28;5018913;28;20048;-40
2024/04/08 02:00:58;;;;;;;6.70;3.50;;;19.50;43.40;;;20.93;36.59;97096.63;5035000;28;20048;-40
2024/04/08 02:03:25;;;;;;;5.22;2.58;;;19.40;43.10;;;20.86;36.80;97109.50;5034853;28;20045;-40
2024/04/08 02:05:51;;;;;;;5.40;2.30;;;19.30;43.10;;;20.84;36.52;97108.91;5018593;28;20050;-40
2024/04/08 02:08:18;;;;;;;6.72;2.65;;;19.20;43.20;;;20.83;36.18;97112.66;5035266;28;20040;-39
2024/04/08 02:10:45;;;;;;;5.55;3.00;;;19.30;42.80;;;20.80;36.40;97115.84;5032459;28;20045;-40
2024/04/08 02:13:12;;;;;;;5.00;2.47;;;19.20;42.90;;;20.76;36.44;97115.53;5031633;28;20041;-39
2024/04/08 02:15:38;;;;;;;7.07;2.30;;;19.20;43.20;;;20.71;36.88;97115.41;5014995;28;20054;-39
2024/04/08 02:18:06;;;;;;;8.77;2.38;;;19.10;43.90;;;20.61;37.10;97118.72;5031840;28;20144;-39
2024/04/08 02:20:38;;;;;;;10.35;3.55;;;18.90;43.90;;;20.52;36.96;97114.72;5032029;28;20521;-40
2024/04/08 02:23:04;;;;;;;7.40;2.78;;;18.80;44.10;;;20.46;37.61;97111.06;5031438;28;20068;-39
2024/04/08 02:25:38;;;;;;;9.32;3.28;;;18.80;45.60;;;20.44;38.22;97115.06;5031990;28;20061;-39
2024/04/08 02:28:05;;;;;;;4.97;2.25;;;18.70;47.00;;;20.37;38.41;97119.78;5014488;28;20420;-41
2024/04/08 02:30:37;;;;;;;7.55;3.35;;;18.60;46.50;;;20.30;38.40;97117.22;5031768;28;20049;-39
2024/04/08 02:33:05;;;;;;;9.38;2.80;;;18.50;46.60;;;20.23;37.68;97124.59;5031172;28;20068;-39
2024/04/08 02:35:37;;;;;;;10.73;3.17;;;18.50;45.70;;;20.17;37.92;97120.97;5031839;28;20041;-39
2024/04/08 02:38:04;;;;;;;5.28;2.15;;;18.50;45.90;;;20.14;37.93;97117.91;5015127;28;20554;-40
2024/04/08 02:40:35;;;;;;;10.10;3.03;;;18.50;45.40;;;20.14;37.59;97121.47;5031710;28;20041;-40
2024/04/08 02:43:03;;;;;;;9.75;3.03;;;18.50;45.00;;;20.14;37.37;97110.66;5030742;28;20049;-39
2024/04/08 02:45:30;;;;;;;7.25;3.38;;;18.60;44.10;;;20.14;38.15;97113.34;5031404;28;20426;-40
2024/04/08 02:47:58;;;;;;;8.48;2.35;;;18.60;45.50;;;20.13;37.94;97110.88;5031346;28;20041;-40
2024/04/08 02:50:25;;;;;;;10.32;2.45;;;18.50;45.00;;;20.10;38.15;97114.03;5031228;28;20037;-40
2024/04/08 02:52:52;;;;;;;9.75;2.95;;;18.50;46.00;;;20.05;38.51;97118.28;5031011;28;20046;-40
2024/04/08 02:55:18;;;;;;;7.18;2.72;;;18.30;46.30;;;20.00;38.65;97104.63;5014835;28;20050;-40
2024/04/08 02:57:45;;;;;;;7.22;2.53;;;18.30;46.70;;;19.95;38.65;97107.22;5031266;28;20072;-39
2024/04/08 03:00:12;;;;;;;5.47;2.42;;;18.20;47.30;;;19.88;39.10;97111.09;5014617;28;20045;-40
2024/04/08 03:02:39;;;;;;;7.53;2.72;;;18.10;47.80;;;19.80;39.17;97104.97;5014148;28;20056;-39
2024/04/08 03:05:06;;;;;;;6.13;2.60;;;18.00;47.90;;;19.77;39.32;97099.22;5031251;28;20037;-40
2024/04/08 03:07:32;;;;;;;8.20;2.83;;;18.00;48.10;;;19.73;39.25;97093.44;5031180;28;20052;-40
2024/04/08 03:09:59;;;;;;;3.72;1.98;;;18.00;48.00;;;19.70;39.18;97104.72;5031181;28;20044;-40
2024/04/08 03:12:26;;;;;;;7.43;3.30;;;18.00;47.90;;;19.68;39.12;97113.03;5030549;28;20505;-40
2024/04/08 03:14:52;;;;;;;7.70;2.40;;;18.00;47.70;;;19.63;39.33;97112.09;5014217;28;20049;-40
2024/04/08 03:17:19;;;;;;;7.40;3.10;;;17.80;47.80;;;19.57;39.20;97111.13;5031084;28;20037;-40
2024/04/08 03:19:46;;;;;;;6.30;2.72;;;17.70;48.10;;;19.52;39.73;97124.50;5030937;28;20052;-40
2024/04/08 03:22:12;;;;;;;6.85;3.08;;;17.70;48.60;;;19.46;39.67;97123.56;5014200;28;20042;-40
2024/04/08 03:24:39;;;;;;;8.70;3.17;;;17.60;48.70;;;19.42;39.57;97121.53;5025764;28;20054;-40
2024/04/08 03:27:06;;;;;;;8.15;3.15;;;17.60;48.30;;;19.37;39.86;97129.53;5030671;28;20176;-40
2024/04/08 03:29:32;;;;;;;3.03;2.13;;;17.50;48.90;;;19.31;40.05;97122.31;5030577;28;20045;-40
2024/04/08 03:31:59;;;;;;;8.50;2.85;;;17.40;49.10;;;19.27;40.25;97122.78;5030722;28;20050;-39
2024/04/08 03:34:25;;;;;;;7.13;3.35;;;17.40;49.50;;;19.24;40.20;97125.94;5030175;28;20056;-40
2024/04/08 03:36:52;;;;;;;5.85;2.95;;;17.40;49.50;;;19.22;40.19;97125.34;5014210;28;20049;-40
2024/04/08 03:39:19;;;;;;;8.65;3.38;;;17.40;49.20;;;19.21;40.04;97139.06;5030481;28;20041;-40
2024/04/08 03:41:45;;;;;;;6.20;2.78;;;17.40;48.80;;;19.20;40.12;97135.53;5030247;28;20045;-39
2024/04/08 03:44:13;;;;;;;9.90;4.13;;;17.50;49.20;;;19.22;39.90;97140.72;5029831;28;20045;-40
2024/04/08 03:46:39;;;;;;;4.88;3.25;;;17.50;48.20;;;19.23;39.67;97132.41;5030535;28;20420;-39
2024/04/08 03:49:06;;;;;;;5.45;3.30;;;17.50;47.90;;;19.24;40.09;97138.63;5030337;28;20053;-39
2024/04/08 03:51:32;;;;;;;9.40;3.13;;;17.50;48.50;;;19.23;39.80;97131.56;5030283;28;20044;-40
2024/04/08 03:54:00;;;;;;;8.48;2.78;;;17.50;48.20;;;19.25;39.48;97137.53;5029893;28;20046;-39
2024/04/08 03:56:27;;;;;;;9.57;2.80;;;17.60;47.70;;;19.26;39.57;97139.22;5029994;28;20046;-39
2024/04/08 03:58:54;;;;;;;12.15;3.00;;;17.60;47.60;;;19.26;39.37;97137.31;5030262;28;20041;-40
2024/04/08 04:01:21;;;;;;;7.32;3.38;;;17.60;47.40;;;19.30;39.17;97136.88;5030095;28;20044;-39
2024/04/08 04:03:47;;;;;;;7.80;2.95;;;17.70;46.80;;;19.32;39.10;97134.78;5029439;28;20045;-39
2024/04/08 04:06:14;;;;;;;10.60;4.10;;;17.70;46.80;;;19.32;39.43;97134.78;5030092;28;20033;-39
2024/04/08 04:08:41;;;;;;;4.63;2.50;;;17.60;47.00;;;19.32;39.26;97134.78;5029537;28;20050;-39
2024/04/08 04:11:08;;;;;;;7.38;2.55;;;17.60;47.10;;;19.32;39.53;97135.59;5029833;28;20042;-40
2024/04/08 04:13:35;;;;;;;9.27;3.15;;;17.60;47.30;;;19.31;39.24;97131.25;5029447;28;20045;-40
2024/04/08 04:16:03;;;;;;;4.80;3.00;;;17.60;47.00;;;19.31;39.36;97133.97;5029899;28;20038;-39
2024/04/08 04:18:30;;;;;;;7.63;3.67;;;17.60;47.10;;;19.31;38.87;97133.97;5029722;28;20057;-40
2024/04/08 04:20:57;;;;;;;11.98;3.58;;;17.60;46.40;;;19.31;39.42;97128.56;5029807;28;20054;-40
2024/04/08 04:23:24;;;;;;;5.38;2.45;;;17.60;47.40;;;19.32;38.49;97130.19;5028964;28;20045;-39
2024/04/08 04:25:58;;;;;;;8.50;3.58;;;17.60;45.60;;;19.36;38.00;97133.25;5029741;28;20034;-39
2024/04/08 04:28:25;;;;;;;5.75;2.65;;;17.80;44.40;;;19.40;37.81;97135.25;5028445;28;20042;-39
2024/04/08 04:30:55;;;;;;;7.93;3.00;;;17.90;44.30;;;19.42;38.32;97130.44;5029597;28;20033;-40
2024/04/08 04:33:22;;;;;;;10.95;2.72;;;17.90;44.80;;;19.43;38.24;97132.09;5028547;28;20490;-39
2024/04/08 04:35:58;;;;;;;8.20;3.05;;;17.90;45.20;;;19.42;38.51;97133.16;5029597;28;20045;-40
2024/04/08 04:38:25;;;;;;;9.63;3.17;;;17.90;45.40;;;19.42;38.25;97137.72;5029430;28;20046;-40
2024/04/08 04:40:59;;;;;;;7.13;2.55;;;17.80;45.40;;;19.42;38.45;97135.84;5029336;28;20057;-40
2024/04/08 04:43:26;;;;;;;8.52;2.95;;;17.80;45.40;;;19.38;38.39;97133.84;5028811;28;20053;-40
2024/04/08 04:45:53;;;;;;;7.63;2.67;;;17.70;45.80;;;19.34;38.54;97135.38;5029560;28;20033;-40
2024/04/08 04:48:19;;;;;;;8.32;2.95;;;17.60;46.30;;;19.30;38.66;97135.00;5029376;28;20033;-40
2024/04/08 04:50:46;;;;;;;6.22;3.03;;;17.50;46.60;;;19.27;38.91;97141.69;5012922;28;20034;-40
2024/04/08 04:53:13;;;;;;;5.53;2.35;;;17.50;46.90;;;19.26;39.04;97142.72;5012556;28;20052;-40
2024/04/08 04:55:40;;;;;;;7.40;2.20;;;17.50;46.80;;;19.23;39.02;97135.09;5029405;28;20414;-40
2024/04/08 04:58:06;;;;;;;9.13;2.60;;;17.50;47.70;;;19.23;38.54;97127.00;5029392;28;20049;-39
2024/04/08 05:00:36;;;;;;;4.45;2.33;;;17.50;46.30;;;19.23;38.54;97128.84;5029049;28;20193;-40
2024/04/08 05:03:02;;;;;;;6.20;2.20;;;17.50;46.10;;;19.20;39.12;97138.25;5028838;28;20041;-40
2024/04/08 05:05:29;;;;;;;14.95;3.60;;;17.50;46.90;;;19.17;39.38;97141.38;5029212;28;20037;-40
2024/04/08 05:07:56;;;;;;;9.35;2.88;;;17.50;47.50;;;19.15;39.04;97139.97;5029325;28;20370;-40
2024/04/08 05:10:23;;;;;;;10.98;3.03;;;17.50;47.00;;;19.14;38.53;97144.56;5029123;28;20524;-40
2024/04/08 05:12:49;;;;;;;9.52;3.40;;;17.50;45.90;;;19.04;39.05;97152.38;5028410;28;20038;-40
2024/04/08 05:15:16;;;;;;;7.13;2.90;;;17.60;46.30;;;19.04;38.97;97150.50;5028849;28;20120;-40
2024/04/08 05:17:43;;;;;;;11.05;3.13;;;17.60;46.10;;;19.08;38.99;97140.09;5029131;28;20041;-40
2024/04/08 05:20:10;;;;;;;9.93;3.20;;;17.60;46.40;;;19.11;39.08;97155.78;5029206;28;20042;-40
2024/04/08 05:22:39;;;;;;;10.13;2.75;;;17.60;46.80;;;19.10;39.28;97148.78;5028701;28;20045;-40
2024/04/08 05:25:06;;;;;;;5.35;2.38;;;17.50;47.10;;;19.10;39.11;97164.97;5012915;28;20523;-40
2024/04/08 05:27:33;;;;;;;10.55;2.80;;;17.50;47.20;;;19.11;39.09;97165.78;5011541;28;20053;-40
2024/04/08 05:30:00;;;;;;;6.57;2.83;;;17.50;47.00;;;19.13;38.91;97167.19;5029124;28;20349;-40
2024/04/08 05:32:26;;;;;;;8.05;3.03;;;17.50;46.60;;;19.15;38.93;97173.16;5028673;28;20516;-39
2024/04/08 05:34:53;;;;;;;10.38;3.10;;;17.60;46.50;;;19.16;39.01;97174.00;5029043;28;20532;-39
2024/04/08 05:37:20;;;;;;;9.10;3.10;;;17.50;46.70;;;19.19;38.77;97171.69;5028944;28;20038;-39
2024/04/08 05:39:47;;;;;;;223.88;202.82;;;17.60;46.50;;;19.22;38.89;97168.53;5028857;28;20049;-39
2024/04/08 05:42:14;;;;;;;483.48;446.48;;;17.60;46.30;;;19.28;38.56;97173.00;5028977;28;20041;-39
2024/04/08 05:44:41;;;;;;;648.75;601.75;;;17.80;46.10;;;19.36;38.71;97168.34;5011780;28;20405;-39
2024/04/08 05:47:07;;;;;;;664.28;610.47;;;17.80;46.10;;;19.40;38.52;97170.34;5031526;28;20033;-39
2024/04/08 05:49:34;;;;;;;639.72;588.63;;;17.80;45.90;;;19.45;38.55;97158.88;5032664;28;20060;-40
2024/04/08 05:52:00;;;;;;;9.65;3.40;;;17.90;45.80;;;19.47;38.36;97157.59;5032123;28;20048;-39
2024/04/08 05:54:27;;;;;;;12.48;3.10;;;17.90;45.90;;;19.50;38.38;97153.59;5032185;28;20061;-40
2024/04/08 05:56:54;;;;;;;106.43;97.18;;;17.90;45.70;;;19.46;38.15;97155.09;5032488;28;20044;-40
2024/04/08 05:59:20;;;;;;;19.50;3.80;;;17.90;45.30;;;19.43;38.10;97156.41;5032281;28;20413;-39
2024/04/08 06:01:47;;;;;;;12.77;6.65;;;18.00;44.90;;;19.35;38.27;97153.19;5031977;28;20064;-39
2024/04/08 06:04:14;;;;;;;10.70;3.92;;;18.00;45.00;;;19.32;38.86;97145.56;5031774;28;20053;-40
2024/04/08 06:06:40;;;;;;;14.68;5.43;;;18.00;45.80;;;19.35;39.15;97142.38;5015809;28;20189;-40
2024/04/08 06:09:08;;;;;;;8.57;3.70;;;18.00;46.00;;;19.39;39.10;97149.81;5031991;28;20188;-40
2024/04/08 06:11:35;;;;;;;12.95;3.95;;;18.00;46.10;;;19.42;39.89;97160.13;5032221;28;20045;-40
2024/04/08 06:14:01;;;;;;;12.55;3.60;;;18.00;47.50;;;19.44;39.34;97154.50;5031620;28;20041;-40
2024/04/08 06:16:28;;;;;;;14.63;4.22;;;18.00;46.80;;;19.46;39.69;97152.41;5015653;28;20041;-40
2024/04/08 06:18:55;;;;;;;14.90;5.05;;;18.00;47.50;;;19.46;40.30;97155.09;5032199;28;20412;-40
2024/04/08 06:21:21;;;;;;;14.80;5.82;;;17.90;48.80;;;19.44;40.68;97162.63;5015509;28;20524;-40
2024/04/08 06:23:48;;;;;;;10.43;4.60;;;17.80;49.40;;;19.42;40.94;97170.13;5028356;28;20539;-40
2024/04/08 06:26:15;;;;;;;12.88;3.97;;;17.80;50.00;;;19.41;41.25;97163.09;5029137;28;20038;-39
2024/04/08 06:28:42;;;;;;;14.23;4.40;;;17.80;50.00;;;19.42;40.90;97165.53;5029047;28;20147;-40
2024/04/08 06:31:08;;;;;;;12.85;3.55;;;17.80;49.70;;;19.43;41.24;97167.19;5030052;28;20042;-39
2024/04/08 06:33:35;;;;;;;11.95;2.92;;;17.80;50.20;;;19.46;40.75;97163.22;5029256;28;20068;-40
2024/04/08 06:36:02;;;;;;;13.85;3.90;;;17.90;48.90;;;19.50;39.93;97168.97;5029997;28;20033;-40
2024/04/08 06:38:28;;;;;;;10.60;5.03;;;18.00;48.10;;;19.53;40.12;97166.66;5029505;28;20038;-40
2024/04/08 06:40:55;;;;;;;13.63;6.10;;;18.00;48.10;;;19.55;39.78;97166.41;5031026;28;20512;-40
2024/04/08 06:43:22;;;;;;;10.65;3.55;;;18.10;47.50;;;19.57;39.83;97165.13;5014653;28;20041;-39
2024/04/08 06:47:08;;;;;;;9.57;3.28;;;18.10;47.80;;;19.63;40.35;97160.69;5425458;26;20320;-38
2024/04/08 06:49:36;;;;;;;12.32;4.47;;;18.10;48.50;;;19.65;40.49;97162.09;5385100;26;20036;-38
2024/04/08 06:52:03;;;;;;;12.02;3.15;;;18.10;48.30;;;19.71;40.12;97164.94;5396525;26;20043;-39
2024/04/08 06:54:31;;;;;;;6.68;2.88;;;18.20;48.30;;;19.74;39.96;97165.31;5395455;26;20031;-38
2024/04/08 06:56:59;;;;;;;7.50;2.67;;;18.30;48.20;;;19.80;40.07;97166.28;5393730;26;20043;-38
2024/04/08 06:59:28;;;;;;;9.40;2.58;;;18.30;48.10;;;19.83;39.77;97168.50;5394997;26;20040;-38
2024/04/08 07:01:56;;;;;;;11.40;3.78;;;18.40;47.60;;;19.85;39.61;97169.09;5395069;26;20043;-38
2024/04/08 07:04:23;;;;;;;8.40;2.88;;;18.40;47.20;;;19.89;39.89;97164.91;5394690;26;20107;-39
2024/04/08 07:06:51;;;;;;;7.72;2.88;;;18.50;47.20;;;19.91;39.03;97162.78;5378992;26;20032;-38
2024/04/08 07:09:21;;;;;;;8.88;2.53;;;18.50;46.40;;;19.93;38.97;97151.72;5395322;26;20040;-38
2024/04/08 07:11:48;;;;;;;8.70;3.05;;;18.60;45.80;;;19.95;38.87;97146.91;5395501;26;20036;-39
2024/04/08 07:14:16;;;;;;;9.38;3.47;;;18.60;45.60;;;19.97;39.27;97144.81;5394974;26;20047;-39
2024/04/08 07:16:46;;;;;;;13.57;3.58;;;18.70;46.00;;;19.97;39.12;97142.94;5393249;26;20021;-38
2024/04/08 07:19:13;;;;;;;6.45;2.72;;;18.70;46.00;;;19.99;38.92;97138.13;5395583;26;20032;-38
2024/04/08 07:21:41;;;;;;;10.85;2.75;;;18.70;46.00;;;19.99;39.05;97140.00;5393177;26;20491;-38
2024/04/08 07:24:09;;;;;;;10.63;2.65;;;18.70;45.90;;;20.01;39.24;97138.72;5394555;26;20032;-38
2024/04/08 07:26:37;;;;;;;8.63;2.60;;;18.70;46.10;;;20.05;39.18;97136.38;5394788;26;20035;-38
2024/04/08 07:29:05;;;;;;;11.48;2.83;;;18.80;45.90;;;20.10;39.15;97139.16;5393966;26;20032;-38
2024/04/08 07:31:33;;;;;;;8.75;3.40;;;18.80;45.90;;;20.13;38.97;97129.78;5394979;26;20048;-39
2024/04/08 07:34:00;;;;;;;14.35;3.47;;;18.90;45.80;;;20.14;38.78;97131.41;5395149;26;20495;-39
2024/04/08 07:36:28;;;;;;;8.93;2.95;;;18.90;45.50;;;20.18;38.89;97128.03;5395749;26;20032;-39
2024/04/08 07:38:56;;;;;;;8.07;2.55;;;18.90;45.70;;;20.23;39.15;97130.00;5393414;26;20032;-39
2024/04/08 07:41:29;;;;;;;8.93;3.38;;;18.90;46.00;;;20.26;39.12;97130.38;5395273;26;20443;-39
2024/04/08 07:43:57;;;;;;;10.52;2.95;;;19.00;46.00;;;20.30;38.98;97124.47;5394690;26;20373;-40
2024/04/08 07:46:25;;;;;;;13.27;3.33;;;19.00;46.00;;;20.34;39.07;97121.09;5394809;26;20033;-40
2024/04/08 07:48:53;;;;;;;9.23;4.07;;;19.00;46.00;;;20.36;38.86;97127.06;5395752;26;20471;-39
2024/04/08 07:51:20;;;;;;;8.75;3.42;;;19.00;45.70;;;20.42;38.91;97122.59;5395125;26;20028;-39
2024/04/08 07:53:48;;;;;;;10.38;4.03;;;19.10;45.80;;;20.45;38.99;97117.56;5394690;26;20041;-39
2024/04/08 07:56:16;;;;;;;10.85;2.75;;;19.10;45.90;;;20.50;38.94;97133.06;5391337;26;20031;-40
2024/04/08 07:58:46;;;;;;;16.08;5.20;;;19.20;45.90;;;20.55;38.92;97133.16;5379495;26;20048;-40
2024/04/08 08:01:14;;;;;;;14.32;4.45;;;19.20;45.60;;;20.59;39.00;97137.06;5380147;26;20367;-40
2024/04/08 08:03:42;;;;;;;12.38;3.70;;;19.30;46.00;;;20.63;38.85;97138.25;5377496;26;20025;-40
2024/04/08 08:06:09;;;;;;;13.52;3.17;;;19.30;45.50;;;20.67;38.54;97137.78;5376638;26;20498;-40
2024/04/08 08:08:37;;;;;;;11.30;2.80;;;19.30;45.00;;;20.71;38.15;97136.22;5379703;26;20045;-40
2024/04/08 08:11:05;;;;;;;9.77;2.65;;;19.40;44.70;;;20.77;38.05;97135.28;5377866;26;20400;-40
2024/04/08 08:13:34;;;;;;;9.65;3.42;;;19.50;44.50;;;20.81;37.85;97133.72;5372188;26;20429;-40
2024/04/08 08:16:01;;;;;;;8.82;2.53;;;19.50;44.50;;;20.87;37.52;97131.97;5397162;26;20036;-39
2024/04/08 08:18:31;;;;;;;14.40;3.40;;;19.60;43.70;;;20.92;37.59;97132.88;5373325;26;20408;-40
2024/04/08 08:21:01;;;;;;;4.95;2.50;;;19.60;43.50;;;20.97;37.39;97127.56;5372402;26;20012;-40
2024/04/08 08:23:30;;;;;;;8.45;2.75;;;19.70;43.60;;;21.03;37.43;97114.94;5372929;26;20014;-39
2024/04/08 08:25:58;;;;;;;7.07;2.80;;;19.70;43.60;;;21.10;37.42;97112.13;5372261;26;20004;-40
2024/04/08 08:28:26;;;;;;;7.97;3.15;;;19.80;43.60;;;21.16;37.68;97125.50;5370820;26;20004;-40
2024/04/08 08:30:54;;;;;;;7.72;2.60;;;19.90;43.90;;;21.22;37.58;97115.59;5371466;26;20014;-40
2024/04/08 08:33:22;;;;;;;5.15;2.45;;;19.90;43.50;;;21.27;37.04;97110.28;5370499;26;21669;-39
2024/04/08 08:35:50;;;;;;;9.43;2.65;;;20.00;42.90;;;21.32;36.93;97114.94;5372211;26;20040;-40
2024/04/08 08:38:19;;;;;;;8.05;2.60;;;20.00;42.60;;;21.38;36.49;97124.81;5371473;26;20355;-39
2024/04/08 08:41:03;;;;;;;10.98;2.63;;;20.10;42.40;;;21.44;36.01;97115.72;5372175;26;20387;-40
2024/04/08 08:43:32;;;;;;;4.10;2.35;;;20.20;41.00;;;21.52;35.65;97119.94;5368194;26;20472;-39
2024/04/08 08:46:00;;;;;;;5.65;2.33;;;20.30;40.90;;;21.55;35.54;97120.28;5372042;26;20558;-39
2024/04/08 08:48:28;;;;;;;6.50;3.17;;;20.30;40.70;;;21.62;34.86;97112.81;5372173;26;20483;-39
2024/04/08 08:51:00;;;;;;;12.07;3.50;;;20.30;39.80;;;21.69;34.08;97107.22;5369207;26;20008;-39
2024/04/08 08:53:28;;;;;;;7.57;2.30;;;20.40;37.90;;;21.78;34.08;97105.75;5371505;26;20015;-39
2024/04/08 08:55:58;;;;;;;10.00;3.40;;;20.50;39.40;;;21.87;33.59;97103.47;5372298;26;20022;-39
2024/04/08 08:58:26;;;;;;;5.38;2.25;;;20.60;38.00;;;21.93;34.04;97105.19;5368792;26;20008;-39
2024/04/08 09:00:55;;;;;;;6.57;3.10;;;20.70;38.00;;;21.97;33.54;97102.81;5365544;26;20371;-39
2024/04/08 09:03:27;;;;;;;9.93;2.85;;;20.70;37.60;;;21.99;32.73;97098.78;5369037;26;20011;-39
2024/04/08 09:05:55;;;;;;;5.03;3.22;;;20.70;36.70;;;22.03;32.67;97093.69;5378963;26;20368;-39
2024/04/08 09:08:23;;;;;;;7.63;3.05;;;20.80;36.80;;;22.07;32.80;97102.97;5376770;26;20028;-39
2024/04/08 09:10:51;;;;;;;7.95;2.25;;;20.80;36.80;;;22.13;32.73;97103.84;5378929;26;20099;-39
2024/04/08 09:13:25;;;;;;;8.38;3.22;;;20.80;36.80;;;22.19;32.71;97106.38;5375956;26;20052;-39
2024/04/08 09:15:53;;;;;;;9.57;2.83;;;20.90;36.70;;;22.27;32.31;97104.34;5373552;26;20004;-39
2024/04/08 09:18:21;;;;;;;9.52;2.92;;;21.00;36.50;;;22.32;31.96;97099.84;5375895;26;20016;-39
2024/04/08 09:20:49;;;;;;;8.98;2.58;;;21.00;36.00;;;22.36;31.80;97103.69;5378469;26;20040;-39
2024/04/08 09:23:18;;;;;;;6.45;2.25;;;21.10;35.80;;;22.45;31.52;97105.97;5378464;26;20383;-39
2024/04/08 09:25:46;;;;;;;6.40;2.90;;;21.10;35.00;;;22.52;31.24;97096.56;5375515;26;20380;-40
2024/04/08 09:28:13;;;;;;;7.70;2.80;;;21.20;35.00;;;22.60;31.33;97093.44;5377674;26;20032;-40
2024/04/08 09:30:42;;;;;;;10.00;2.42;;;21.40;35.20;;;22.69;30.81;97087.56;5378476;26;20040;-40
2024/04/08 09:33:11;;;;;;;6.60;2.42;;;21.40;34.20;;;22.77;30.25;97084.41;5376392;26;20467;-40
2024/04/08 09:35:41;;;;;;;9.02;2.25;;;21.50;33.30;;;22.87;30.04;97089.13;5378530;26;20064;-40
2024/04/08 09:38:12;;;;;;;7.57;2.55;;;21.60;33.40;;;22.95;30.52;97092.22;5364859;26;20476;-40
2024/04/08 09:40:41;;;;;;;5.03;2.20;;;21.70;33.70;;;23.04;30.43;97094.53;5378644;26;20382;-40
2024/04/08 09:43:11;;;;;;;13.75;3.03;;;21.70;34.00;;;23.10;30.23;97086.16;5376025;26;20035;-40
2024/04/08 09:45:42;;;;;;;8.50;2.75;;;21.80;33.30;;;23.18;30.30;97084.88;5378726;26;20036;-40
2024/04/08 09:48:12;;;;;;;5.78;2.65;;;21.90;33.70;;;23.25;29.94;97088.22;5364562;26;20040;-40
2024/04/08 09:50:44;;;;;;;11.00;3.58;;;22.00;33.80;;;23.30;30.03;97082.00;5378604;26;20032;-41
2024/04/08 09:53:11;;;;;;;10.77;3.00;;;22.00;32.70;;;23.38;29.35;97082.38;5375979;26;20186;-39
2024/04/08 09:55:40;;;;;;;13.32;3.03;;;22.10;32.60;;;23.45;29.45;97075.91;5376449;26;20032;-39
2024/04/08 09:58:18;;;;;;;7.68;3.00;;;22.20;32.80;;;23.51;29.56;97074.88;5365228;26;20032;-39
2024/04/08 10:00:46;;;;;;;11.40;2.83;;;22.20;32.40;;;23.57;29.74;97065.69;5378281;26;20028;-40
2024/04/08 10:03:16;;;;;;;10.65;2.60;;;22.30;33.10;;;23.62;28.85;97065.75;5375838;26;20040;-39
2024/04/08 10:05:46;;;;;;;11.70;3.40;;;22.30;32.40;;;23.66;29.07;97063.34;5375830;26;20114;-39
2024/04/08 10:08:14;;;;;;;8.20;2.65;;;22.40;32.20;;;23.72;28.49;97073.16;5376168;26;20036;-39
2024/04/08 10:10:42;;;;;;;4.68;2.17;;;22.40;31.30;;;23.80;28.07;97064.56;5378537;26;20040;-39
2024/04/08 10:13:11;;;;;;;9.50;3.30;;;22.50;30.90;;;23.87;30.58;97070.59;5377380;26;20052;-39
2024/04/08 10:15:42;;;;;;;13.30;4.63;;;22.60;34.50;;;23.93;31.59;97074.97;5378439;26;20024;-40
2024/04/08 10:18:10;;;;;;;7.65;2.38;;;22.60;35.90;;;23.96;28.62;97068.19;5377218;26;20025;-40
2024/04/08 10:20:42;;;;;;;9.30;3.10;;;22.70;31.50;;;23.98;28.21;97077.75;5377231;26;20148;-40